sensor_id;sensor_type;location;lat;lon;timestamp;P1;durP1;ratioP1;P2;durP2;ratioP2
69410;SDS011;56604;48.652;9.194;2022-09-30T00:02:17;38.53;;;16.90;;
69410;SDS011;56604;48.652;9.194;2022-09-30T00:04:43;63.27;;;32.50;;
69410;SDS011;56604;48.652;9.194;2022-09-30T00:07:08;29.20;;;15.70;;
69410;SDS011;56604;48.652;9.194;2022-09-30T00:09:33;111.57;;;58.97;;
69410;SDS011;56604;48.652;9.194;2022-09-30T00:11:58;40.17;;;23.10;;
69410;SDS011;56604;48.652;9.194;2022-09-30T00:14:24;70.23;;;38.80;;
69410;SDS011;56604;48.652;9.194;2022-09-30T00:16:49;56.10;;;32.67;;
69410;SDS011;56604;48.652;9.194;2022-09-30T00:19:15;49.10;;;28.50;;
69410;SDS011;56604;48.652;9.194;2022-09-30T00:21:40;30.60;;;20.67;;
69410;SDS011;56604;48.652;9.194;2022-09-30T00:24:06;42.27;;;24.90;;
69410;SDS011;56604;48.652;9.194;2022-09-30T00:26:32;13.40;;;8.40;;
69410;SDS011;56604;48.652;9.194;2022-09-30T00:28:58;15.63;;;9.03;;
69410;SDS011;56604;48.652;9.194;2022-09-30T00:31:25;26.70;;;10.60;;
69410;SDS011;56604;48.652;9.194;2022-09-30T00:33:56;18.60;;;9.97;;
69410;SDS011;56604;48.652;9.194;2022-09-30T00:36:35;26.70;;;18.70;;
69410;SDS011;56604;48.652;9.194;2022-09-30T00:39:02;55.83;;;32.77;;
69410;SDS011;56604;48.652;9.194;2022-09-30T00:41:29;63.63;;;42.37;;
69410;SDS011;56604;48.652;9.194;2022-09-30T00:43:55;122.33;;;54.13;;
69410;SDS011;56604;48.652;9.194;2022-09-30T00:49:04;86.87;;;37.93;;
69410;SDS011;56604;48.652;9.194;2022-09-30T00:51:45;36.87;;;20.00;;
69410;SDS011;56604;48.652;9.194;2022-09-30T00:54:15;25.10;;;12.27;;
69410;SDS011;56604;48.652;9.194;2022-09-30T00:56:45;26.03;;;8.23;;
69410;SDS011;56604;48.652;9.194;2022-09-30T00:59:16;16.67;;;8.90;;
69410;SDS011;56604;48.652;9.194;2022-09-30T01:01:47;15.40;;;8.40;;
69410;SDS011;56604;48.652;9.194;2022-09-30T01:04:13;10.67;;;8.40;;
69410;SDS011;56604;48.652;9.194;2022-09-30T01:06:41;18.30;;;9.13;;
69410;SDS011;56604;48.652;9.194;2022-09-30T01:09:07;10.57;;;7.70;;
69410;SDS011;56604;48.652;9.194;2022-09-30T01:11:32;14.60;;;8.10;;
69410;SDS011;56604;48.652;9.194;2022-09-30T01:14:03;9.90;;;7.90;;
69410;SDS011;56604;48.652;9.194;2022-09-30T01:31:40;14.97;;;9.70;;
69410;SDS011;56604;48.652;9.194;2022-09-30T01:34:16;15.70;;;8.80;;
69410;SDS011;56604;48.652;9.194;2022-09-30T01:36:49;16.50;;;8.90;;
69410;SDS011;56604;48.652;9.194;2022-09-30T01:39:37;10.87;;;8.00;;
69410;SDS011;56604;48.652;9.194;2022-09-30T01:56:17;13.80;;;9.00;;
69410;SDS011;56604;48.652;9.194;2022-09-30T02:01:36;13.80;;;10.70;;
69410;SDS011;56604;48.652;9.194;2022-09-30T02:04:11;13.73;;;10.30;;
69410;SDS011;56604;48.652;9.194;2022-09-30T02:06:44;15.07;;;10.53;;
69410;SDS011;56604;48.652;9.194;2022-09-30T02:09:20;24.23;;;9.30;;
69410;SDS011;56604;48.652;9.194;2022-09-30T02:11:50;18.40;;;9.93;;
69410;SDS011;56604;48.652;9.194;2022-09-30T02:17:09;13.40;;;9.60;;
69410;SDS011;56604;48.652;9.194;2022-09-30T02:20:02;14.57;;;9.67;;
69410;SDS011;56604;48.652;9.194;2022-09-30T02:22:42;17.90;;;10.17;;
69410;SDS011;56604;48.652;9.194;2022-09-30T02:25:17;13.23;;;8.33;;
69410;SDS011;56604;48.652;9.194;2022-09-30T02:27:48;16.93;;;10.00;;
69410;SDS011;56604;48.652;9.194;2022-09-30T02:30:17;16.03;;;10.73;;
69410;SDS011;56604;48.652;9.194;2022-09-30T02:32:50;16.17;;;11.43;;
69410;SDS011;56604;48.652;9.194;2022-09-30T02:35:27;14.67;;;10.10;;
69410;SDS011;56604;48.652;9.194;2022-09-30T02:37:59;19.63;;;11.27;;
69410;SDS011;56604;48.652;9.194;2022-09-30T02:42:54;16.03;;;10.23;;
69410;SDS011;56604;48.652;9.194;2022-09-30T02:45:21;16.70;;;10.00;;
69410;SDS011;56604;48.652;9.194;2022-09-30T02:47:52;15.20;;;9.40;;
69410;SDS011;56604;48.652;9.194;2022-09-30T02:56:03;14.13;;;9.50;;
69410;SDS011;56604;48.652;9.194;2022-09-30T02:58:30;19.30;;;10.43;;
69410;SDS011;56604;48.652;9.194;2022-09-30T03:01:00;13.30;;;10.10;;
69410;SDS011;56604;48.652;9.194;2022-09-30T03:03:27;12.83;;;9.77;;
69410;SDS011;56604;48.652;9.194;2022-09-30T03:05:58;19.00;;;10.40;;
69410;SDS011;56604;48.652;9.194;2022-09-30T03:08:24;19.50;;;10.73;;
69410;SDS011;56604;48.652;9.194;2022-09-30T03:10:50;15.83;;;10.83;;
69410;SDS011;56604;48.652;9.194;2022-09-30T03:17:04;17.03;;;10.87;;
69410;SDS011;56604;48.652;9.194;2022-09-30T03:27:22;15.70;;;11.03;;
69410;SDS011;56604;48.652;9.194;2022-09-30T03:30:08;19.53;;;11.57;;
69410;SDS011;56604;48.652;9.194;2022-09-30T03:32:51;16.10;;;11.13;;
69410;SDS011;56604;48.652;9.194;2022-09-30T03:43:28;14.63;;;9.73;;
69410;SDS011;56604;48.652;9.194;2022-09-30T03:48:32;20.23;;;11.23;;
69410;SDS011;56604;48.652;9.194;2022-09-30T03:51:01;14.80;;;9.73;;
69410;SDS011;56604;48.652;9.194;2022-09-30T03:53:28;16.37;;;9.10;;
69410;SDS011;56604;48.652;9.194;2022-09-30T03:55:54;13.10;;;8.80;;
69410;SDS011;56604;48.652;9.194;2022-09-30T03:58:20;22.67;;;9.80;;
69410;SDS011;56604;48.652;9.194;2022-09-30T04:00:51;10.90;;;9.00;;
69410;SDS011;56604;48.652;9.194;2022-09-30T04:03:19;13.20;;;9.70;;
69410;SDS011;56604;48.652;9.194;2022-09-30T04:05:46;20.03;;;9.60;;
69410;SDS011;56604;48.652;9.194;2022-09-30T04:08:12;10.47;;;8.90;;
69410;SDS011;56604;48.652;9.194;2022-09-30T04:10:40;13.47;;;9.53;;
69410;SDS011;56604;48.652;9.194;2022-09-30T04:13:07;25.07;;;8.97;;
69410;SDS011;56604;48.652;9.194;2022-09-30T04:15:33;11.27;;;8.10;;
69410;SDS011;56604;48.652;9.194;2022-09-30T04:18:00;23.73;;;9.47;;
69410;SDS011;56604;48.652;9.194;2022-09-30T04:20:26;14.63;;;8.73;;
69410;SDS011;56604;48.652;9.194;2022-09-30T04:22:51;13.70;;;8.70;;
69410;SDS011;56604;48.652;9.194;2022-09-30T04:25:16;18.70;;;10.07;;
69410;SDS011;56604;48.652;9.194;2022-09-30T04:27:42;13.80;;;9.47;;
69410;SDS011;56604;48.652;9.194;2022-09-30T04:30:07;15.27;;;9.77;;
69410;SDS011;56604;48.652;9.194;2022-09-30T04:32:33;13.80;;;8.73;;
69410;SDS011;56604;48.652;9.194;2022-09-30T04:34:58;20.63;;;10.20;;
69410;SDS011;56604;48.652;9.194;2022-09-30T04:37:23;15.53;;;11.47;;
69410;SDS011;56604;48.652;9.194;2022-09-30T04:39:48;12.93;;;9.93;;
69410;SDS011;56604;48.652;9.194;2022-09-30T04:42:14;20.03;;;11.50;;
69410;SDS011;56604;48.652;9.194;2022-09-30T04:44:41;17.23;;;10.83;;
69410;SDS011;56604;48.652;9.194;2022-09-30T04:47:06;13.30;;;9.53;;
69410;SDS011;56604;48.652;9.194;2022-09-30T04:49:31;15.73;;;10.37;;
69410;SDS011;56604;48.652;9.194;2022-09-30T04:51:56;15.87;;;10.50;;
69410;SDS011;56604;48.652;9.194;2022-09-30T04:54:22;19.70;;;9.47;;
69410;SDS011;56604;48.652;9.194;2022-09-30T04:56:49;14.37;;;9.00;;
69410;SDS011;56604;48.652;9.194;2022-09-30T04:59:14;18.47;;;10.00;;
69410;SDS011;56604;48.652;9.194;2022-09-30T05:01:39;16.43;;;9.67;;
69410;SDS011;56604;48.652;9.194;2022-09-30T05:04:06;12.67;;;9.50;;
69410;SDS011;56604;48.652;9.194;2022-09-30T05:06:32;11.13;;;8.53;;
69410;SDS011;56604;48.652;9.194;2022-09-30T05:08:57;10.50;;;8.27;;
69410;SDS011;56604;48.652;9.194;2022-09-30T05:11:22;13.20;;;8.43;;
69410;SDS011;56604;48.652;9.194;2022-09-30T05:13:48;18.50;;;9.67;;
69410;SDS011;56604;48.652;9.194;2022-09-30T05:16:15;27.90;;;20.27;;
69410;SDS011;56604;48.652;9.194;2022-09-30T05:18:41;30.80;;;15.83;;
69410;SDS011;56604;48.652;9.194;2022-09-30T05:21:09;23.60;;;12.70;;
69410;SDS011;56604;48.652;9.194;2022-09-30T05:23:35;16.80;;;11.70;;
69410;SDS011;56604;48.652;9.194;2022-09-30T05:26:01;32.63;;;13.40;;
69410;SDS011;56604;48.652;9.194;2022-09-30T05:28:27;25.20;;;12.70;;
69410;SDS011;56604;48.652;9.194;2022-09-30T05:30:59;20.17;;;12.70;;
69410;SDS011;56604;48.652;9.194;2022-09-30T05:33:26;18.53;;;11.40;;
69410;SDS011;56604;48.652;9.194;2022-09-30T05:35:59;15.87;;;11.93;;
69410;SDS011;56604;48.652;9.194;2022-09-30T05:38:31;15.80;;;12.13;;
69410;SDS011;56604;48.652;9.194;2022-09-30T05:40:57;17.83;;;13.47;;
69410;SDS011;56604;48.652;9.194;2022-09-30T05:43:22;23.83;;;15.27;;
69410;SDS011;56604;48.652;9.194;2022-09-30T05:45:54;25.60;;;14.93;;
69410;SDS011;56604;48.652;9.194;2022-09-30T05:48:21;40.40;;;23.17;;
69410;SDS011;56604;48.652;9.194;2022-09-30T05:50:47;32.87;;;20.47;;
69410;SDS011;56604;48.652;9.194;2022-09-30T05:53:14;23.10;;;15.43;;
69410;SDS011;56604;48.652;9.194;2022-09-30T05:55:44;17.73;;;11.17;;
69410;SDS011;56604;48.652;9.194;2022-09-30T05:58:11;13.93;;;8.67;;
69410;SDS011;56604;48.652;9.194;2022-09-30T06:00:39;13.00;;;9.43;;
69410;SDS011;56604;48.652;9.194;2022-09-30T06:03:08;13.93;;;8.13;;
69410;SDS011;56604;48.652;9.194;2022-09-30T06:05:34;54.73;;;9.20;;
69410;SDS011;56604;48.652;9.194;2022-09-30T06:08:00;109.07;;;10.30;;
69410;SDS011;56604;48.652;9.194;2022-09-30T06:10:25;14.27;;;8.40;;
69410;SDS011;56604;48.652;9.194;2022-09-30T06:12:50;13.77;;;8.57;;
69410;SDS011;56604;48.652;9.194;2022-09-30T06:15:16;17.13;;;9.43;;
69410;SDS011;56604;48.652;9.194;2022-09-30T06:17:41;18.07;;;10.10;;
69410;SDS011;56604;48.652;9.194;2022-09-30T06:20:10;14.17;;;9.20;;
69410;SDS011;56604;48.652;9.194;2022-09-30T06:22:35;18.17;;;10.83;;
69410;SDS011;56604;48.652;9.194;2022-09-30T06:25:04;57.80;;;16.53;;
69410;SDS011;56604;48.652;9.194;2022-09-30T06:27:31;49.20;;;16.60;;
69410;SDS011;56604;48.652;9.194;2022-09-30T06:29:57;26.23;;;12.03;;
69410;SDS011;56604;48.652;9.194;2022-09-30T06:32:23;45.43;;;10.80;;
69410;SDS011;56604;48.652;9.194;2022-09-30T06:34:50;22.03;;;9.07;;
69410;SDS011;56604;48.652;9.194;2022-09-30T06:37:16;12.17;;;9.70;;
69410;SDS011;56604;48.652;9.194;2022-09-30T06:39:42;14.50;;;11.20;;
69410;SDS011;56604;48.652;9.194;2022-09-30T06:42:08;17.37;;;12.50;;
69410;SDS011;56604;48.652;9.194;2022-09-30T06:44:35;16.60;;;11.40;;
69410;SDS011;56604;48.652;9.194;2022-09-30T06:47:00;13.33;;;10.93;;
69410;SDS011;56604;48.652;9.194;2022-09-30T06:49:26;19.50;;;10.83;;
69410;SDS011;56604;48.652;9.194;2022-09-30T06:51:51;11.90;;;9.80;;
69410;SDS011;56604;48.652;9.194;2022-09-30T06:54:16;13.33;;;9.70;;
69410;SDS011;56604;48.652;9.194;2022-09-30T06:56:43;18.27;;;10.40;;
69410;SDS011;56604;48.652;9.194;2022-09-30T06:59:09;14.83;;;10.30;;
69410;SDS011;56604;48.652;9.194;2022-09-30T07:01:35;15.40;;;9.93;;
69410;SDS011;56604;48.652;9.194;2022-09-30T07:04:00;14.70;;;9.70;;
69410;SDS011;56604;48.652;9.194;2022-09-30T07:06:32;13.87;;;9.87;;
69410;SDS011;56604;48.652;9.194;2022-09-30T07:08:57;11.57;;;9.50;;
69410;SDS011;56604;48.652;9.194;2022-09-30T07:11:22;10.30;;;7.83;;
69410;SDS011;56604;48.652;9.194;2022-09-30T07:13:48;11.20;;;8.40;;
69410;SDS011;56604;48.652;9.194;2022-09-30T07:16:15;13.57;;;8.70;;
69410;SDS011;56604;48.652;9.194;2022-09-30T07:18:42;16.23;;;10.23;;
69410;SDS011;56604;48.652;9.194;2022-09-30T07:21:08;17.33;;;8.73;;
69410;SDS011;56604;48.652;9.194;2022-09-30T07:23:36;14.20;;;9.53;;
69410;SDS011;56604;48.652;9.194;2022-09-30T07:26:02;21.30;;;10.90;;
69410;SDS011;56604;48.652;9.194;2022-09-30T07:28:33;18.93;;;10.67;;
69410;SDS011;56604;48.652;9.194;2022-09-30T07:31:01;32.23;;;11.23;;
69410;SDS011;56604;48.652;9.194;2022-09-30T07:33:31;24.63;;;12.23;;
69410;SDS011;56604;48.652;9.194;2022-09-30T07:35:58;26.60;;;10.90;;
69410;SDS011;56604;48.652;9.194;2022-09-30T07:38:25;22.90;;;11.17;;
69410;SDS011;56604;48.652;9.194;2022-09-30T07:40:56;38.70;;;12.80;;
69410;SDS011;56604;48.652;9.194;2022-09-30T07:43:24;18.73;;;11.00;;
69410;SDS011;56604;48.652;9.194;2022-09-30T07:46:01;13.43;;;9.90;;
69410;SDS011;56604;48.652;9.194;2022-09-30T07:48:28;24.57;;;9.50;;
69410;SDS011;56604;48.652;9.194;2022-09-30T07:51:10;28.63;;;9.20;;
69410;SDS011;56604;48.652;9.194;2022-09-30T07:53:41;11.90;;;9.40;;
69410;SDS011;56604;48.652;9.194;2022-09-30T07:56:09;23.80;;;11.13;;
69410;SDS011;56604;48.652;9.194;2022-09-30T07:58:34;20.63;;;12.70;;
69410;SDS011;56604;48.652;9.194;2022-09-30T08:01:00;16.27;;;12.30;;
69410;SDS011;56604;48.652;9.194;2022-09-30T08:03:25;18.20;;;13.23;;
69410;SDS011;56604;48.652;9.194;2022-09-30T08:05:51;19.07;;;13.60;;
69410;SDS011;56604;48.652;9.194;2022-09-30T08:08:17;18.10;;;13.10;;
69410;SDS011;56604;48.652;9.194;2022-09-30T08:10:43;16.40;;;12.23;;
69410;SDS011;56604;48.652;9.194;2022-09-30T08:13:08;19.30;;;12.90;;
69410;SDS011;56604;48.652;9.194;2022-09-30T08:15:34;23.10;;;12.53;;
69410;SDS011;56604;48.652;9.194;2022-09-30T08:18:00;18.73;;;13.43;;
69410;SDS011;56604;48.652;9.194;2022-09-30T08:20:26;20.07;;;14.70;;
69410;SDS011;56604;48.652;9.194;2022-09-30T08:22:54;30.13;;;14.03;;
69410;SDS011;56604;48.652;9.194;2022-09-30T08:25:20;15.27;;;12.20;;
69410;SDS011;56604;48.652;9.194;2022-09-30T08:27:47;21.77;;;14.17;;
69410;SDS011;56604;48.652;9.194;2022-09-30T08:30:12;20.07;;;14.07;;
69410;SDS011;56604;48.652;9.194;2022-09-30T08:32:37;18.67;;;13.50;;
69410;SDS011;56604;48.652;9.194;2022-09-30T08:35:03;21.60;;;13.57;;
69410;SDS011;56604;48.652;9.194;2022-09-30T08:37:29;31.67;;;13.00;;
69410;SDS011;56604;48.652;9.194;2022-09-30T08:39:54;17.90;;;13.10;;
69410;SDS011;56604;48.652;9.194;2022-09-30T08:42:32;20.37;;;13.10;;
69410;SDS011;56604;48.652;9.194;2022-09-30T08:45:12;22.47;;;13.10;;
69410;SDS011;56604;48.652;9.194;2022-09-30T08:47:55;17.97;;;13.73;;
69410;SDS011;56604;48.652;9.194;2022-09-30T08:50:55;23.63;;;16.53;;
69410;SDS011;56604;48.652;9.194;2022-09-30T08:53:45;24.60;;;16.20;;
69410;SDS011;56604;48.652;9.194;2022-09-30T08:56:16;30.90;;;15.70;;
69410;SDS011;56604;48.652;9.194;2022-09-30T08:58:47;21.20;;;15.23;;
69410;SDS011;56604;48.652;9.194;2022-09-30T09:03:56;29.57;;;15.87;;
69410;SDS011;56604;48.652;9.194;2022-09-30T09:09:59;22.30;;;15.13;;
69410;SDS011;56604;48.652;9.194;2022-09-30T09:14:51;26.57;;;15.47;;
69410;SDS011;56604;48.652;9.194;2022-09-30T09:21:03;24.67;;;15.53;;
69410;SDS011;56604;48.652;9.194;2022-09-30T09:23:40;20.30;;;14.67;;
69410;SDS011;56604;48.652;9.194;2022-09-30T09:26:08;17.30;;;13.37;;
69410;SDS011;56604;48.652;9.194;2022-09-30T09:28:58;17.03;;;11.90;;
69410;SDS011;56604;48.652;9.194;2022-09-30T09:31:34;16.70;;;12.87;;
69410;SDS011;56604;48.652;9.194;2022-09-30T09:34:00;30.80;;;12.47;;
69410;SDS011;56604;48.652;9.194;2022-09-30T09:44:59;23.07;;;15.27;;
69410;SDS011;56604;48.652;9.194;2022-09-30T09:47:28;19.27;;;14.80;;
69410;SDS011;56604;48.652;9.194;2022-09-30T09:49:56;16.27;;;13.93;;
69410;SDS011;56604;48.652;9.194;2022-09-30T09:52:31;22.60;;;14.40;;
69410;SDS011;56604;48.652;9.194;2022-09-30T09:55:04;19.17;;;14.30;;
69410;SDS011;56604;48.652;9.194;2022-09-30T09:57:30;23.90;;;15.90;;
69410;SDS011;56604;48.652;9.194;2022-09-30T10:00:00;20.70;;;15.23;;
69410;SDS011;56604;48.652;9.194;2022-09-30T10:05:24;21.83;;;14.27;;
69410;SDS011;56604;48.652;9.194;2022-09-30T10:07:51;28.30;;;15.00;;
69410;SDS011;56604;48.652;9.194;2022-09-30T10:15:46;15.27;;;10.40;;
69410;SDS011;56604;48.652;9.194;2022-09-30T10:18:17;12.40;;;9.20;;
69410;SDS011;56604;48.652;9.194;2022-09-30T10:20:51;13.30;;;9.90;;
69410;SDS011;56604;48.652;9.194;2022-09-30T10:26:05;13.40;;;8.77;;
69410;SDS011;56604;48.652;9.194;2022-09-30T10:31:27;10.03;;;8.37;;
69410;SDS011;56604;48.652;9.194;2022-09-30T10:33:59;10.90;;;7.90;;
69410;SDS011;56604;48.652;9.194;2022-09-30T10:36:34;8.37;;;7.53;;
69410;SDS011;56604;48.652;9.194;2022-09-30T10:39:04;10.93;;;8.20;;
69410;SDS011;56604;48.652;9.194;2022-09-30T10:41:32;8.50;;;7.50;;
69410;SDS011;56604;48.652;9.194;2022-09-30T10:44:00;9.60;;;6.70;;
69410;SDS011;56604;48.652;9.194;2022-09-30T10:46:28;14.40;;;7.20;;
69410;SDS011;56604;48.652;9.194;2022-09-30T10:48:56;9.10;;;7.33;;
69410;SDS011;56604;48.652;9.194;2022-09-30T10:51:32;6.90;;;5.80;;
69410;SDS011;56604;48.652;9.194;2022-09-30T10:53:59;4.33;;;4.00;;
69410;SDS011;56604;48.652;9.194;2022-09-30T10:56:45;8.80;;;5.40;;
69410;SDS011;56604;48.652;9.194;2022-09-30T10:59:12;5.70;;;5.20;;
69410;SDS011;56604;48.652;9.194;2022-09-30T11:01:52;4.93;;;4.57;;
69410;SDS011;56604;48.652;9.194;2022-09-30T11:04:23;6.37;;;4.40;;
69410;SDS011;56604;48.652;9.194;2022-09-30T11:06:50;6.10;;;5.20;;
69410;SDS011;56604;48.652;9.194;2022-09-30T11:09:31;6.37;;;5.77;;
69410;SDS011;56604;48.652;9.194;2022-09-30T11:12:47;7.13;;;6.23;;
69410;SDS011;56604;48.652;9.194;2022-09-30T11:15:03;6.53;;;5.83;;
69410;SDS011;56604;48.652;9.194;2022-09-30T11:20:44;7.00;;;5.27;;
69410;SDS011;56604;48.652;9.194;2022-09-30T11:31:51;8.87;;;4.43;;
69410;SDS011;56604;48.652;9.194;2022-09-30T11:37:26;5.97;;;5.37;;
69410;SDS011;56604;48.652;9.194;2022-09-30T11:42:55;6.17;;;4.77;;
69410;SDS011;56604;48.652;9.194;2022-09-30T11:56:25;3.63;;;2.80;;
69410;SDS011;56604;48.652;9.194;2022-09-30T11:59:02;2.33;;;2.23;;
69410;SDS011;56604;48.652;9.194;2022-09-30T12:01:32;3.87;;;2.70;;
69410;SDS011;56604;48.652;9.194;2022-09-30T12:06:34;4.20;;;3.00;;
69410;SDS011;56604;48.652;9.194;2022-09-30T12:09:05;2.70;;;2.50;;
69410;SDS011;56604;48.652;9.194;2022-09-30T12:11:46;4.10;;;2.60;;
69410;SDS011;56604;48.652;9.194;2022-09-30T12:14:22;6.90;;;2.43;;
69410;SDS011;56604;48.652;9.194;2022-09-30T12:16:52;6.77;;;2.23;;
69410;SDS011;56604;48.652;9.194;2022-09-30T12:19:38;6.17;;;2.67;;
69410;SDS011;56604;48.652;9.194;2022-09-30T12:22:19;6.13;;;2.47;;
69410;SDS011;56604;48.652;9.194;2022-09-30T12:24:48;2.83;;;2.63;;
69410;SDS011;56604;48.652;9.194;2022-09-30T12:27:15;2.93;;;2.73;;
69410;SDS011;56604;48.652;9.194;2022-09-30T12:30:10;4.10;;;2.50;;
69410;SDS011;56604;48.652;9.194;2022-09-30T12:32:54;2.10;;;2.00;;
69410;SDS011;56604;48.652;9.194;2022-09-30T12:36:13;4.30;;;2.30;;
69410;SDS011;56604;48.652;9.194;2022-09-30T12:41:08;4.20;;;1.90;;
69410;SDS011;56604;48.652;9.194;2022-09-30T12:49:18;2.63;;;2.33;;
69410;SDS011;56604;48.652;9.194;2022-09-30T12:51:48;3.93;;;2.53;;
69410;SDS011;56604;48.652;9.194;2022-09-30T12:54:22;2.60;;;2.40;;
69410;SDS011;56604;48.652;9.194;2022-09-30T12:56:52;3.50;;;2.50;;
69410;SDS011;56604;48.652;9.194;2022-09-30T12:59:27;3.50;;;2.60;;
69410;SDS011;56604;48.652;9.194;2022-09-30T13:01:56;4.10;;;2.70;;
69410;SDS011;56604;48.652;9.194;2022-09-30T13:04:30;3.80;;;2.70;;
69410;SDS011;56604;48.652;9.194;2022-09-30T13:09:34;4.20;;;2.43;;
69410;SDS011;56604;48.652;9.194;2022-09-30T13:14:36;7.20;;;2.77;;
69410;SDS011;56604;48.652;9.194;2022-09-30T13:19:38;5.30;;;2.00;;
69410;SDS011;56604;48.652;9.194;2022-09-30T13:27:33;2.17;;;1.90;;
69410;SDS011;56604;48.652;9.194;2022-09-30T13:32:42;1.23;;;1.23;;
69410;SDS011;56604;48.652;9.194;2022-09-30T13:40:56;2.87;;;1.60;;
69410;SDS011;56604;48.652;9.194;2022-09-30T13:43:34;1.87;;;1.77;;
69410;SDS011;56604;48.652;9.194;2022-09-30T13:48:41;1.80;;;1.70;;
69410;SDS011;56604;48.652;9.194;2022-09-30T13:51:13;1.83;;;1.60;;
69410;SDS011;56604;48.652;9.194;2022-09-30T13:53:53;2.03;;;1.90;;
69410;SDS011;56604;48.652;9.194;2022-09-30T13:56:29;1.83;;;1.73;;
69410;SDS011;56604;48.652;9.194;2022-09-30T14:09:44;1.87;;;1.77;;
69410;SDS011;56604;48.652;9.194;2022-09-30T14:17:45;4.10;;;1.77;;
69410;SDS011;56604;48.652;9.194;2022-09-30T14:22:44;2.50;;;1.80;;
69410;SDS011;56604;48.652;9.194;2022-09-30T14:25:14;1.60;;;1.50;;
69410;SDS011;56604;48.652;9.194;2022-09-30T14:30:28;1.90;;;1.67;;
69410;SDS011;56604;48.652;9.194;2022-09-30T14:33:02;1.50;;;1.40;;
69410;SDS011;56604;48.652;9.194;2022-09-30T14:35:35;3.13;;;1.70;;
69410;SDS011;56604;48.652;9.194;2022-09-30T14:38:07;4.27;;;1.50;;
69410;SDS011;56604;48.652;9.194;2022-09-30T14:40:40;2.60;;;1.83;;
69410;SDS011;56604;48.652;9.194;2022-09-30T14:43:14;2.20;;;2.00;;
69410;SDS011;56604;48.652;9.194;2022-09-30T14:45:44;1.70;;;1.60;;
69410;SDS011;56604;48.652;9.194;2022-09-30T14:48:15;4.20;;;3.10;;
69410;SDS011;56604;48.652;9.194;2022-09-30T14:50:54;1.60;;;1.53;;
69410;SDS011;56604;48.652;9.194;2022-09-30T14:53:25;1.77;;;1.67;;
69410;SDS011;56604;48.652;9.194;2022-09-30T14:55:56;1.90;;;1.80;;
69410;SDS011;56604;48.652;9.194;2022-09-30T14:58:37;1.80;;;1.63;;
69410;SDS011;56604;48.652;9.194;2022-09-30T15:01:07;3.50;;;2.10;;
69410;SDS011;56604;48.652;9.194;2022-09-30T15:03:40;2.10;;;1.90;;
69410;SDS011;56604;48.652;9.194;2022-09-30T15:06:22;5.67;;;1.80;;
69410;SDS011;56604;48.652;9.194;2022-09-30T15:09:01;2.33;;;2.13;;
69410;SDS011;56604;48.652;9.194;2022-09-30T15:11:29;2.27;;;1.90;;
69410;SDS011;56604;48.652;9.194;2022-09-30T15:14:01;12.40;;;2.17;;
69410;SDS011;56604;48.652;9.194;2022-09-30T15:16:30;3.40;;;1.70;;
69410;SDS011;56604;48.652;9.194;2022-09-30T15:18:56;2.63;;;2.00;;
69410;SDS011;56604;48.652;9.194;2022-09-30T15:21:23;1.70;;;1.70;;
69410;SDS011;56604;48.652;9.194;2022-09-30T15:23:51;1.73;;;1.63;;
69410;SDS011;56604;48.652;9.194;2022-09-30T15:26:19;5.37;;;1.60;;
69410;SDS011;56604;48.652;9.194;2022-09-30T15:28:46;1.90;;;1.80;;
69410;SDS011;56604;48.652;9.194;2022-09-30T15:34:00;1.27;;;1.27;;
69410;SDS011;56604;48.652;9.194;2022-09-30T15:36:30;2.40;;;2.20;;
69410;SDS011;56604;48.652;9.194;2022-09-30T15:38:58;5.17;;;3.80;;
69410;SDS011;56604;48.652;9.194;2022-09-30T15:41:23;2.73;;;2.50;;
69410;SDS011;56604;48.652;9.194;2022-09-30T15:43:50;4.17;;;2.13;;
69410;SDS011;56604;48.652;9.194;2022-09-30T15:48:50;2.23;;;2.03;;
69410;SDS011;56604;48.652;9.194;2022-09-30T15:53:47;3.30;;;3.10;;
69410;SDS011;56604;48.652;9.194;2022-09-30T15:56:16;3.90;;;2.60;;
69410;SDS011;56604;48.652;9.194;2022-09-30T15:59:05;2.23;;;2.10;;
69410;SDS011;56604;48.652;9.194;2022-09-30T16:01:35;4.67;;;3.33;;
69410;SDS011;56604;48.652;9.194;2022-09-30T16:08:59;2.07;;;1.97;;
69410;SDS011;56604;48.652;9.194;2022-09-30T16:11:30;6.00;;;3.30;;
69410;SDS011;56604;48.652;9.194;2022-09-30T16:14:00;2.60;;;2.40;;
69410;SDS011;56604;48.652;9.194;2022-09-30T16:16:29;7.10;;;2.50;;
69410;SDS011;56604;48.652;9.194;2022-09-30T16:18:56;3.07;;;2.47;;
69410;SDS011;56604;48.652;9.194;2022-09-30T16:26:46;2.57;;;2.17;;
69410;SDS011;56604;48.652;9.194;2022-09-30T16:29:13;2.30;;;2.10;;
69410;SDS011;56604;48.652;9.194;2022-09-30T16:31:39;16.37;;;3.03;;
69410;SDS011;56604;48.652;9.194;2022-09-30T16:34:05;13.03;;;2.57;;
69410;SDS011;56604;48.652;9.194;2022-09-30T16:36:31;10.10;;;2.60;;
69410;SDS011;56604;48.652;9.194;2022-09-30T16:38:56;2.60;;;2.50;;
69410;SDS011;56604;48.652;9.194;2022-09-30T16:41:23;5.17;;;2.80;;
69410;SDS011;56604;48.652;9.194;2022-09-30T16:43:49;5.27;;;2.87;;
69410;SDS011;56604;48.652;9.194;2022-09-30T16:46:15;2.73;;;2.63;;
69410;SDS011;56604;48.652;9.194;2022-09-30T16:48:40;3.73;;;2.43;;
69410;SDS011;56604;48.652;9.194;2022-09-30T16:51:09;4.60;;;2.00;;
69410;SDS011;56604;48.652;9.194;2022-09-30T16:53:38;4.67;;;2.60;;
69410;SDS011;56604;48.652;9.194;2022-09-30T16:56:03;2.97;;;2.77;;
69410;SDS011;56604;48.652;9.194;2022-09-30T16:58:29;7.13;;;4.30;;
69410;SDS011;56604;48.652;9.194;2022-09-30T17:00:55;6.97;;;3.00;;
69410;SDS011;56604;48.652;9.194;2022-09-30T17:03:24;3.57;;;2.63;;
69410;SDS011;56604;48.652;9.194;2022-09-30T17:05:50;6.93;;;5.00;;
69410;SDS011;56604;48.652;9.194;2022-09-30T17:08:17;25.80;;;13.27;;
69410;SDS011;56604;48.652;9.194;2022-09-30T17:10:44;13.13;;;7.87;;
69410;SDS011;56604;48.652;9.194;2022-09-30T17:13:14;7.03;;;4.70;;
69410;SDS011;56604;48.652;9.194;2022-09-30T17:15:41;4.63;;;2.80;;
69410;SDS011;56604;48.652;9.194;2022-09-30T17:18:07;3.03;;;2.57;;
69410;SDS011;56604;48.652;9.194;2022-09-30T17:20:36;5.00;;;3.07;;
69410;SDS011;56604;48.652;9.194;2022-09-30T17:23:01;9.27;;;2.97;;
69410;SDS011;56604;48.652;9.194;2022-09-30T17:25:27;3.00;;;2.80;;
69410;SDS011;56604;48.652;9.194;2022-09-30T17:27:53;5.00;;;3.43;;
69410;SDS011;56604;48.652;9.194;2022-09-30T17:30:19;3.37;;;3.10;;
69410;SDS011;56604;48.652;9.194;2022-09-30T17:32:45;4.97;;;2.20;;
69410;SDS011;56604;48.652;9.194;2022-09-30T17:35:11;2.27;;;2.17;;
69410;SDS011;56604;48.652;9.194;2022-09-30T17:37:37;2.00;;;1.90;;
69410;SDS011;56604;48.652;9.194;2022-09-30T17:40:03;5.73;;;2.70;;
69410;SDS011;56604;48.652;9.194;2022-09-30T17:42:50;2.53;;;2.40;;
69410;SDS011;56604;48.652;9.194;2022-09-30T17:45:34;3.97;;;2.37;;
69410;SDS011;56604;48.652;9.194;2022-09-30T17:48:00;2.70;;;1.90;;
69410;SDS011;56604;48.652;9.194;2022-09-30T17:50:25;4.30;;;2.70;;
69410;SDS011;56604;48.652;9.194;2022-09-30T17:52:51;2.40;;;2.20;;
69410;SDS011;56604;48.652;9.194;2022-09-30T17:55:16;2.60;;;1.83;;
69410;SDS011;56604;48.652;9.194;2022-09-30T17:57:41;2.17;;;2.07;;
69410;SDS011;56604;48.652;9.194;2022-09-30T18:00:07;2.00;;;1.90;;
69410;SDS011;56604;48.652;9.194;2022-09-30T18:02:33;3.77;;;1.80;;
69410;SDS011;56604;48.652;9.194;2022-09-30T18:04:58;2.50;;;2.40;;
69410;SDS011;56604;48.652;9.194;2022-09-30T18:07:23;8.00;;;5.90;;
69410;SDS011;56604;48.652;9.194;2022-09-30T18:09:51;48.23;;;27.47;;
69410;SDS011;56604;48.652;9.194;2022-09-30T18:12:16;12.73;;;8.20;;
69410;SDS011;56604;48.652;9.194;2022-09-30T18:14:42;6.73;;;5.40;;